createdAt,value
2022-10-11T00:00:23.914Z,7.07
2022-10-11T00:02:52.390Z,10.38
2022-10-11T00:05:19.755Z,11.60
2022-10-11T00:07:47.073Z,6.63
2022-10-11T00:10:14.434Z,11.45
2022-10-11T00:12:42.703Z,7.70
2022-10-11T00:15:13.547Z,10.10
2022-10-11T00:17:40.841Z,8.85
2022-10-11T00:20:08.651Z,7.30
2022-10-11T00:22:37.855Z,9.55
2022-10-11T00:25:08.277Z,9.75
2022-10-11T00:27:35.810Z,7.43
2022-10-11T00:30:05.040Z,9.57
2022-10-11T00:32:35.482Z,9.07
2022-10-11T00:35:06.392Z,7.47
2022-10-11T00:37:38.872Z,6.65
2022-10-11T00:40:09.301Z,6.63
2022-10-11T00:42:36.634Z,6.50
2022-10-11T00:45:31.736Z,7.15
2022-10-11T00:48:09.092Z,8.48
2022-10-11T00:50:38.624Z,6.78
2022-10-11T00:53:12.216Z,8.18
2022-10-11T00:55:55.598Z,6.38
2022-10-11T00:58:23.628Z,8.77
2022-10-11T01:00:51.382Z,7.32
2022-10-11T01:03:23.187Z,8.73
2022-10-11T01:05:50.650Z,6.93
2022-10-11T01:08:18.368Z,7.15
2022-10-11T01:10:45.800Z,10.20
2022-10-11T01:13:37.748Z,9.73
2022-10-11T01:16:17.389Z,7.35
2022-10-11T01:19:16.404Z,6.63
2022-10-11T01:22:31.562Z,7.82
2022-10-11T01:25:21.696Z,7.03
2022-10-11T01:27:59.645Z,9.15
2022-10-11T01:30:30.225Z,7.90
2022-10-11T01:33:03.669Z,8.65
2022-10-11T01:35:48.473Z,10.10
2022-10-11T01:38:33.066Z,10.25
2022-10-11T01:41:06.409Z,10.05
2022-10-11T01:43:35.378Z,9.05
2022-10-11T01:46:04.238Z,6.68
2022-10-11T01:48:31.733Z,9.02
2022-10-11T01:51:02.402Z,7.63
2022-10-11T01:53:55.833Z,8.00
2022-10-11T01:56:48.802Z,7.40
2022-10-11T01:59:33.938Z,7.43
2022-10-11T02:02:25.713Z,8.15
2022-10-11T02:05:19.153Z,6.95
2022-10-11T02:08:15.449Z,6.47
2022-10-11T02:10:45.751Z,9.38
2022-10-11T02:13:20.218Z,7.47
2022-10-11T02:15:49.742Z,5.75
2022-10-11T02:18:32.318Z,6.47
2022-10-11T02:21:02.490Z,7.18
2022-10-11T02:23:38.060Z,7.80
2022-10-11T02:26:09.078Z,8.18
2022-10-11T02:28:39.688Z,5.88
2022-10-11T02:31:08.460Z,9.45
2022-10-11T02:33:54.035Z,7.40
2022-10-11T02:36:34.824Z,10.20
2022-10-11T02:39:11.753Z,8.32
2022-10-11T02:41:43.426Z,11.10
2022-10-11T02:44:17.023Z,8.75
2022-10-11T02:46:45.754Z,10.32
2022-10-11T02:49:14.441Z,8.40
2022-10-11T02:51:41.890Z,8.55
2022-10-11T02:54:09.132Z,12.90
2022-10-11T02:56:36.326Z,7.75
2022-10-11T02:59:03.694Z,9.40
2022-10-11T03:01:31.058Z,8.23
2022-10-11T03:03:58.241Z,9.43
2022-10-11T03:06:25.555Z,9.55
2022-10-11T03:08:52.793Z,10.88
2022-10-11T03:11:20.089Z,11.35
2022-10-11T03:13:47.248Z,11.23
2022-10-11T03:16:15.016Z,7.20
2022-10-11T03:18:42.695Z,11.20
2022-10-11T03:21:10.237Z,14.93
2022-10-11T03:23:37.468Z,12.20
2022-10-11T03:26:05.066Z,10.82
2022-10-11T03:28:32.859Z,15.45
2022-10-11T03:31:00.168Z,11.80
2022-10-11T03:33:27.325Z,7.70
2022-10-11T03:35:54.574Z,13.13
2022-10-11T03:38:23.055Z,20.30
2022-10-11T03:40:52.710Z,12.43
2022-10-11T03:43:20.042Z,12.10
2022-10-11T03:45:47.276Z,8.48
2022-10-11T03:48:14.672Z,9.35
2022-10-11T03:50:42.486Z,7.45
2022-10-11T03:53:12.248Z,11.57
2022-10-11T03:55:40.842Z,9.82
2022-10-11T03:58:09.508Z,7.43
2022-10-11T04:00:37.597Z,8.00
2022-10-11T04:03:04.841Z,9.07
2022-10-11T04:05:32.553Z,7.35
2022-10-11T04:07:59.850Z,9.77
2022-10-11T04:10:27.118Z,8.52
2022-10-11T04:12:54.313Z,8.18
2022-10-11T04:15:21.677Z,11.82
2022-10-11T04:17:48.933Z,11.90
2022-10-11T04:20:16.171Z,8.68
2022-10-11T04:22:43.386Z,11.45
2022-10-11T04:25:11.061Z,9.65
2022-10-11T04:27:38.530Z,13.20
2022-10-11T04:30:06.980Z,14.55
2022-10-11T04:32:34.328Z,11.02
2022-10-11T04:35:01.753Z,10.82
2022-10-11T04:37:29.079Z,11.57
2022-10-11T04:39:56.264Z,8.70
2022-10-11T04:42:23.621Z,11.75
2022-10-11T04:44:50.988Z,12.35
2022-10-11T04:47:18.357Z,15.48
2022-10-11T04:49:46.078Z,12.00
2022-10-11T04:52:13.356Z,9.88
2022-10-11T04:54:40.663Z,10.45
2022-10-11T04:57:08.013Z,8.52
2022-10-11T04:59:35.324Z,8.98
2022-10-11T05:02:02.595Z,8.60
2022-10-11T05:04:29.812Z,10.40
2022-10-11T05:06:57.004Z,10.80
2022-10-11T05:09:24.327Z,10.32
2022-10-11T05:11:51.564Z,10.55
2022-10-11T05:14:18.648Z,12.68
2022-10-11T05:16:45.875Z,9.07
2022-10-11T05:19:13.238Z,9.68
2022-10-11T05:21:40.501Z,12.00
2022-10-11T05:24:08.184Z,12.60
2022-10-11T05:26:35.380Z,9.50
2022-10-11T05:29:02.844Z,11.73
2022-10-11T05:31:30.189Z,10.23
2022-10-11T05:33:57.574Z,14.80
2022-10-11T05:36:24.893Z,9.57
2022-10-11T05:38:52.221Z,12.18
2022-10-11T05:41:19.394Z,12.73
2022-10-11T05:43:46.800Z,9.43
2022-10-11T05:46:14.206Z,11.27
2022-10-11T05:48:41.722Z,10.25
2022-10-11T05:51:10.554Z,10.13
2022-10-11T05:53:39.057Z,7.97
2022-10-11T05:56:17.157Z,7.90
2022-10-11T05:58:44.389Z,11.43
2022-10-11T06:01:24.162Z,11.40
2022-10-11T06:03:55.136Z,12.23
2022-10-11T06:06:23.316Z,11.95
2022-10-11T06:08:50.595Z,13.65
2022-10-11T06:11:25.435Z,11.07
2022-10-11T06:13:58.205Z,15.27
2022-10-11T06:16:26.553Z,14.82
2022-10-11T06:18:57.821Z,15.27
2022-10-11T06:21:25.791Z,13.48
2022-10-11T06:24:00.010Z,13.65
2022-10-11T06:26:28.801Z,14.18
2022-10-11T06:28:56.766Z,22.17
2022-10-11T06:31:27.544Z,21.35
2022-10-11T06:33:58.916Z,28.00
2022-10-11T06:36:26.765Z,32.78
2022-10-11T06:38:55.234Z,35.08
2022-10-11T06:41:27.441Z,35.58
2022-10-11T06:43:54.923Z,27.52
2022-10-11T06:46:24.509Z,33.85
2022-10-11T06:48:51.695Z,31.38
2022-10-11T06:51:21.868Z,35.60
2022-10-11T06:53:57.014Z,34.90
2022-10-11T06:56:25.941Z,31.10
2022-10-11T06:58:57.730Z,31.95
2022-10-11T07:01:26.453Z,29.58
2022-10-11T07:03:55.228Z,26.40
2022-10-11T07:06:24.709Z,28.98
2022-10-11T07:08:52.221Z,30.48
2022-10-11T07:11:22.546Z,24.85
2022-10-11T07:13:52.673Z,22.77
2022-10-11T07:16:21.149Z,23.10
2022-10-11T07:18:55.913Z,23.98
2022-10-11T07:21:26.980Z,23.20
2022-10-11T07:23:54.235Z,20.38
2022-10-11T07:26:21.514Z,21.92
2022-10-11T07:28:48.996Z,15.55
2022-10-11T07:31:19.629Z,15.32
2022-10-11T07:33:47.052Z,9.07
2022-10-11T07:36:15.853Z,15.18
2022-10-11T07:38:45.238Z,9.70
2022-10-11T07:41:13.251Z,13.13
2022-10-11T07:43:40.698Z,10.27
2022-10-11T07:46:08.616Z,13.85
2022-10-11T07:48:37.028Z,11.88
2022-10-11T07:51:16.021Z,15.48
2022-10-11T07:53:47.050Z,12.13
2022-10-11T07:56:20.508Z,13.15
2022-10-11T07:59:01.617Z,11.75
2022-10-11T08:01:29.942Z,9.70
2022-10-11T08:03:57.913Z,10.80
2022-10-11T08:06:29.520Z,9.77
2022-10-11T08:09:00.023Z,11.25
2022-10-11T08:11:30.552Z,13.07
2022-10-11T08:13:59.408Z,15.00
2022-10-11T08:16:26.905Z,14.48
2022-10-11T08:18:57.050Z,17.52
2022-10-11T08:21:25.121Z,19.60
2022-10-11T08:23:53.511Z,16.30
2022-10-11T08:26:21.142Z,13.32
2022-10-11T08:28:48.764Z,15.57
2022-10-11T08:31:16.999Z,13.50
2022-10-11T08:33:44.499Z,10.18
2022-10-11T08:36:12.561Z,11.27
2022-10-11T08:38:40.515Z,9.98
2022-10-11T08:41:28.984Z,14.68
2022-10-11T08:44:20.978Z,12.07
2022-10-11T08:46:56.872Z,14.10
2022-10-11T08:49:32.175Z,15.95
2022-10-11T08:52:04.794Z,11.13
2022-10-11T08:54:37.348Z,13.38
2022-10-11T08:57:11.591Z,9.32
2022-10-11T08:59:51.299Z,10.75
2022-10-11T09:02:55.486Z,10.10
2022-10-11T09:05:26.069Z,9.02
2022-10-11T09:08:47.350Z,10.38
2022-10-11T09:11:26.532Z,9.63
2022-10-11T09:14:07.802Z,13.25
2022-10-11T09:16:55.634Z,12.18
2022-10-11T09:19:44.746Z,11.00
2022-10-11T09:22:20.118Z,12.25
2022-10-11T09:25:15.447Z,10.40
2022-10-11T09:28:12.222Z,14.43
2022-10-11T09:30:48.846Z,11.07
2022-10-11T09:33:38.871Z,11.30
2022-10-11T09:36:29.031Z,9.75
2022-10-11T09:39:10.375Z,12.18
2022-10-11T09:41:45.595Z,10.13
2022-10-11T09:44:27.557Z,12.27
2022-10-11T09:47:12.602Z,6.93
2022-10-11T09:49:50.847Z,10.38
2022-10-11T09:52:21.448Z,8.30
2022-10-11T09:54:51.848Z,11.60
2022-10-11T09:57:54.573Z,15.95
2022-10-11T10:00:27.516Z,12.10
2022-10-11T10:02:57.646Z,9.05
2022-10-11T10:05:30.663Z,8.73
2022-10-11T10:08:04.309Z,11.60
2022-10-11T10:10:39.126Z,10.50
2022-10-11T10:13:44.499Z,11.68
2022-10-11T10:16:26.674Z,9.00
2022-10-11T10:18:57.896Z,11.32
2022-10-11T10:21:38.022Z,9.65
2022-10-11T10:24:18.518Z,11.52
2022-10-11T10:27:07.237Z,11.25
2022-10-11T10:29:36.044Z,7.72
2022-10-11T10:32:23.481Z,11.52
2022-10-11T10:35:13.585Z,7.60
2022-10-11T10:37:52.448Z,9.50
2022-10-11T10:40:28.097Z,10.95
2022-10-11T10:42:56.407Z,8.32
2022-10-11T10:45:32.865Z,10.52
2022-10-11T10:48:16.257Z,8.25
2022-10-11T10:51:28.389Z,9.13
2022-10-11T10:54:26.936Z,10.65
2022-10-11T10:57:00.530Z,9.45
2022-10-11T10:59:30.749Z,11.15
2022-10-11T11:02:38.921Z,9.43
2022-10-11T11:05:21.754Z,6.28
2022-10-11T11:08:02.319Z,7.43
2022-10-11T11:11:01.265Z,7.60
2022-10-11T11:13:32.426Z,6.68
2022-10-11T11:16:12.472Z,4.60
2022-10-11T11:18:51.214Z,7.25
2022-10-11T11:21:32.049Z,11.55
2022-10-11T11:24:13.568Z,6.35
2022-10-11T11:26:55.848Z,5.35
2022-10-11T11:29:41.448Z,7.22
2022-10-11T11:32:44.793Z,9.20
2022-10-11T11:35:31.012Z,5.32
2022-10-11T11:38:06.501Z,7.05
2022-10-11T11:40:41.277Z,6.88
2022-10-11T11:43:35.289Z,8.07
2022-10-11T11:46:24.962Z,6.18
2022-10-11T11:49:02.764Z,9.52
2022-10-11T11:51:46.086Z,6.68
2022-10-11T11:54:43.881Z,6.47
2022-10-11T11:57:34.281Z,5.88
2022-10-11T12:00:15.017Z,5.95
2022-10-11T12:05:26.064Z,7.10
2022-10-11T12:08:27.322Z,7.05
2022-10-11T12:10:59.713Z,7.45
2022-10-11T12:13:47.247Z,10.32
2022-10-11T12:16:16.775Z,11.10
2022-10-11T12:19:04.196Z,7.25
2022-10-11T12:21:41.143Z,10.48
2022-10-11T12:24:20.215Z,11.43
2022-10-11T12:26:49.045Z,8.77
2022-10-11T12:29:19.386Z,11.43
2022-10-11T12:32:11.366Z,7.63
2022-10-11T12:37:18.916Z,8.38
2022-10-11T12:39:55.102Z,14.85
2022-10-11T12:42:26.589Z,9.18
2022-10-11T12:45:14.720Z,9.68
2022-10-11T12:47:52.505Z,11.38
2022-10-11T12:50:31.765Z,5.78
2022-10-11T12:53:30.085Z,7.93
2022-10-11T12:56:12.327Z,5.85
2022-10-11T12:58:45.134Z,11.90
2022-10-11T13:01:15.406Z,10.20
2022-10-11T13:03:46.938Z,10.30
2022-10-11T13:06:50.951Z,10.02
2022-10-11T13:09:26.126Z,8.40
2022-10-11T13:11:58.954Z,7.28
2022-10-11T13:14:29.374Z,8.75
2022-10-11T13:17:06.298Z,9.15
2022-10-11T13:19:36.868Z,6.80
2022-10-11T13:22:17.333Z,12.40
2022-10-11T13:24:46.531Z,8.43
2022-10-11T13:27:27.222Z,9.45
2022-10-11T13:29:59.754Z,6.97
2022-10-11T13:32:30.775Z,8.82
2022-10-11T13:35:03.543Z,9.38
2022-10-11T13:37:37.857Z,6.03
2022-10-11T13:40:05.829Z,10.60
2022-10-11T13:42:36.777Z,11.13
2022-10-11T13:45:04.752Z,8.65
2022-10-11T13:47:33.782Z,6.97
2022-10-11T13:50:09.407Z,11.48
2022-10-11T13:52:36.702Z,13.18
2022-10-11T13:55:03.807Z,8.63
2022-10-11T13:57:44.908Z,10.60
2022-10-11T14:00:17.532Z,6.90
2022-10-11T14:03:07.815Z,8.35
2022-10-11T14:05:35.069Z,10.18
2022-10-11T14:08:19.741Z,13.57
2022-10-11T14:10:50.736Z,13.65
2022-10-11T14:13:37.795Z,8.40
2022-10-11T14:16:09.916Z,11.63
2022-10-11T14:18:37.177Z,12.27
2022-10-11T14:21:19.812Z,8.27
2022-10-11T14:23:47.611Z,11.85
2022-10-11T14:26:18.675Z,10.30
2022-10-11T14:31:16.625Z,10.90
2022-10-11T14:33:43.865Z,7.97
2022-10-11T14:36:11.043Z,14.80
2022-10-11T14:38:38.171Z,11.05
2022-10-11T14:41:05.337Z,7.13
2022-10-11T14:43:33.326Z,11.75
2022-10-11T14:46:01.634Z,11.10
2022-10-11T14:48:53.714Z,9.70
2022-10-11T14:51:21.276Z,10.68
2022-10-11T14:54:03.598Z,12.55
2022-10-11T14:56:31.539Z,13.43
2022-10-11T14:59:10.793Z,11.77
2022-10-11T15:01:39.205Z,11.07
2022-10-11T15:04:07.354Z,11.98
2022-10-11T15:06:38.809Z,11.40
2022-10-11T15:09:07.533Z,12.30
2022-10-11T15:11:36.588Z,13.27
2022-10-11T15:14:04.512Z,14.32
2022-10-11T15:16:32.214Z,10.35
2022-10-11T15:18:59.446Z,12.13
2022-10-11T15:21:28.586Z,8.68
2022-10-11T15:23:56.821Z,12.50
2022-10-11T15:26:27.529Z,11.05
2022-10-11T15:28:57.378Z,7.40
2022-10-11T15:31:24.781Z,11.82
2022-10-11T15:33:52.487Z,10.90
2022-10-11T15:36:22.428Z,10.85
2022-10-11T15:38:50.143Z,9.38
2022-10-11T15:41:19.114Z,13.85
2022-10-11T15:43:48.209Z,11.15
2022-10-11T15:46:30.546Z,11.05
2022-10-11T15:48:57.824Z,12.88
2022-10-11T15:51:25.058Z,13.18
2022-10-11T15:53:52.254Z,10.13
2022-10-11T15:56:19.810Z,12.18
2022-10-11T15:58:48.137Z,15.65
2022-10-11T16:01:18.530Z,15.60
2022-10-11T16:03:47.950Z,14.68
2022-10-11T16:06:16.278Z,10.43
2022-10-11T16:08:43.586Z,12.45
2022-10-11T16:11:12.251Z,12.00
2022-10-11T16:13:39.701Z,10.70
2022-10-11T16:16:09.257Z,10.00
2022-10-11T16:18:37.125Z,14.55
2022-10-11T16:21:10.306Z,10.05
2022-10-11T16:23:38.403Z,11.95
2022-10-11T16:26:09.577Z,14.85
2022-10-11T16:28:38.061Z,18.85
2022-10-11T16:31:16.981Z,14.77
2022-10-11T16:33:46.503Z,12.75
2022-10-11T16:36:51.739Z,13.60
2022-10-11T16:39:19.953Z,13.35
2022-10-11T16:41:47.439Z,12.00
2022-10-11T16:44:17.632Z,18.30
2022-10-11T16:46:48.458Z,14.48
2022-10-11T16:49:17.170Z,16.40
2022-10-11T16:51:44.711Z,15.95
2022-10-11T16:54:13.721Z,18.08
2022-10-11T16:56:43.073Z,13.23
2022-10-11T16:59:11.199Z,15.18
2022-10-11T17:01:39.918Z,10.85
2022-10-11T17:04:07.139Z,10.60
2022-10-11T17:06:35.162Z,9.77
2022-10-11T17:09:03.205Z,17.20
2022-10-11T17:11:30.649Z,11.30
2022-10-11T17:13:59.827Z,12.77
2022-10-11T17:16:27.463Z,13.20
2022-10-11T17:18:54.868Z,10.85
2022-10-11T17:21:22.557Z,12.98
2022-10-11T17:23:50.523Z,18.35
2022-10-11T17:26:26.417Z,13.98
2022-10-11T17:29:03.019Z,18.33
2022-10-11T17:31:31.151Z,15.48
2022-10-11T17:34:00.130Z,21.85
2022-10-11T17:36:35.111Z,20.42
2022-10-11T17:39:05.763Z,44.08
2022-10-11T17:41:34.361Z,34.22
2022-10-11T17:44:03.301Z,22.77
2022-10-11T17:46:33.056Z,33.28
2022-10-11T17:49:02.193Z,25.38
2022-10-11T17:51:30.066Z,18.00
2022-10-11T17:53:57.363Z,16.50
2022-10-11T17:56:30.401Z,63.78
2022-10-11T17:59:00.085Z,69.55
2022-10-11T18:01:29.397Z,72.80
2022-10-11T18:04:02.077Z,73.82
2022-10-11T18:06:32.111Z,66.90
2022-10-11T18:09:03.514Z,27.10
2022-10-11T18:11:35.582Z,49.00
2022-10-11T18:14:03.076Z,12.55
2022-10-11T18:16:33.260Z,15.18
2022-10-11T18:19:03.444Z,36.47
2022-10-11T18:21:34.653Z,18.60
2022-10-11T18:24:13.474Z,12.13
2022-10-11T18:26:41.655Z,30.20
2022-10-11T18:29:09.707Z,27.17
2022-10-11T18:31:37.027Z,19.83
2022-10-11T18:34:10.929Z,17.95
2022-10-11T18:36:38.837Z,16.35
2022-10-11T18:39:08.912Z,19.02
2022-10-11T18:41:38.052Z,18.98
2022-10-11T18:44:08.818Z,32.10
2022-10-11T18:46:36.656Z,66.60
2022-10-11T18:49:09.027Z,63.58
2022-10-11T18:51:39.365Z,73.03
2022-10-11T18:54:08.594Z,50.88
2022-10-11T18:56:37.112Z,29.02
2022-10-11T18:59:05.681Z,38.13
2022-10-11T19:01:39.963Z,54.25
2022-10-11T19:04:10.793Z,44.78
2022-10-11T19:06:40.720Z,39.33
2022-10-11T19:09:21.987Z,60.92
2022-10-11T19:12:09.117Z,27.92
2022-10-11T19:14:36.426Z,42.97
2022-10-11T19:17:03.582Z,36.95
2022-10-11T19:19:35.704Z,59.30
2022-10-11T19:22:04.990Z,74.90
2022-10-11T19:24:32.465Z,56.13
2022-10-11T19:27:02.728Z,19.48
2022-10-11T19:29:30.721Z,36.78
2022-10-11T19:32:02.903Z,22.83
2022-10-11T19:34:32.892Z,88.30
2022-10-11T19:37:01.468Z,48.78
2022-10-11T19:39:29.653Z,21.40
2022-10-11T19:41:56.757Z,73.78
2022-10-11T19:44:24.001Z,35.42
2022-10-11T19:46:52.771Z,193.38
2022-10-11T19:49:24.223Z,37.25
2022-10-11T19:51:52.543Z,58.93
2022-10-11T19:54:20.021Z,17.02
2022-10-11T19:56:49.840Z,24.70
2022-10-11T19:59:17.213Z,41.58
2022-10-11T20:01:57.602Z,29.90
2022-10-11T20:04:52.052Z,20.70
2022-10-11T20:07:30.871Z,29.17
2022-10-11T20:09:58.658Z,44.35
2022-10-11T20:12:29.456Z,74.65
2022-10-11T20:14:58.304Z,52.07
2022-10-11T20:17:45.619Z,25.92
2022-10-11T20:20:14.033Z,15.43
2022-10-11T20:22:41.314Z,17.08
2022-10-11T20:25:09.070Z,43.58
2022-10-11T20:27:36.359Z,31.00
2022-10-11T20:30:04.377Z,22.58
2022-10-11T20:32:31.579Z,18.52
2022-10-11T20:34:58.910Z,14.23
2022-10-11T20:37:29.164Z,90.85
2022-10-11T20:39:56.396Z,100.65
2022-10-11T20:42:28.865Z,43.70
2022-10-11T20:44:59.333Z,27.88
2022-10-11T20:47:26.517Z,31.33
2022-10-11T20:49:58.616Z,29.50
2022-10-11T20:52:26.341Z,25.10
2022-10-11T20:54:54.373Z,21.25
2022-10-11T20:57:21.595Z,15.55
2022-10-11T20:59:49.379Z,17.50
2022-10-11T21:02:19.366Z,12.40
2022-10-11T21:04:55.338Z,12.82
2022-10-11T21:07:22.503Z,10.25
2022-10-11T21:09:49.717Z,18.27
2022-10-11T21:12:16.921Z,30.50
2022-10-11T21:14:45.287Z,24.88
2022-10-11T21:17:12.639Z,14.40
2022-10-11T21:19:39.900Z,11.95
2022-10-11T21:22:07.021Z,16.25
2022-10-11T21:24:34.305Z,19.05
2022-10-11T21:27:07.302Z,16.30
2022-10-11T21:29:34.613Z,46.63
2022-10-11T21:32:01.881Z,32.25
2022-10-11T21:34:29.015Z,20.05
2022-10-11T21:36:56.235Z,13.20
2022-10-11T21:39:23.421Z,14.07
2022-10-11T21:41:50.653Z,11.60
2022-10-11T21:44:18.028Z,12.07
2022-10-11T21:47:06.050Z,11.75
2022-10-11T21:49:32.462Z,12.57
2022-10-11T21:52:00.182Z,12.75
2022-10-11T21:54:28.210Z,14.05
2022-10-11T21:56:55.503Z,15.23
2022-10-11T21:59:22.719Z,13.35
2022-10-11T22:01:50.077Z,18.27
2022-10-11T22:04:17.303Z,28.23
2022-10-11T22:06:45.085Z,37.03
2022-10-11T22:09:12.301Z,21.73
2022-10-11T22:11:39.501Z,18.35
2022-10-11T22:14:06.716Z,12.45
2022-10-11T22:16:34.714Z,12.10
2022-10-11T22:19:01.990Z,15.93
2022-10-11T22:21:29.233Z,17.35
2022-10-11T22:23:56.810Z,16.55
2022-10-11T22:26:30.914Z,15.30
2022-10-11T22:28:59.832Z,14.75
2022-10-11T22:31:27.550Z,15.82
2022-10-11T22:33:56.383Z,15.35
2022-10-11T22:36:26.497Z,17.98
2022-10-11T22:38:54.672Z,17.98
2022-10-11T22:41:22.131Z,16.15
2022-10-11T22:43:49.635Z,13.07
2022-10-11T22:46:17.185Z,12.38
2022-10-11T22:48:44.285Z,18.63
2022-10-11T22:51:11.511Z,13.63
2022-10-11T22:53:39.217Z,12.35
2022-10-11T22:56:06.737Z,15.55
2022-10-11T22:58:33.869Z,11.82
2022-10-11T23:01:12.943Z,11.77
2022-10-11T23:03:40.428Z,12.10
2022-10-11T23:06:08.080Z,16.85
2022-10-11T23:08:35.269Z,11.52
2022-10-11T23:11:04.546Z,19.73
2022-10-11T23:13:31.718Z,12.05
2022-10-11T23:15:58.889Z,14.95
2022-10-11T23:18:26.209Z,12.70
2022-10-11T23:20:53.384Z,15.18
2022-10-11T23:23:20.569Z,16.45
2022-10-11T23:25:47.693Z,15.02
2022-10-11T23:28:15.179Z,12.63
2022-10-11T23:30:42.408Z,16.08
2022-10-11T23:33:09.537Z,13.60
2022-10-11T23:35:38.257Z,14.43
2022-10-11T23:38:05.345Z,18.05
2022-10-11T23:40:32.649Z,14.90
2022-10-11T23:42:59.844Z,12.23
2022-10-11T23:45:26.929Z,15.23
2022-10-11T23:47:54.147Z,14.52
2022-10-11T23:50:21.389Z,13.32
2022-10-11T23:52:48.575Z,14.73
2022-10-11T23:55:15.881Z,11.38
2022-10-11T23:57:43.057Z,13.50
